Time,TemperatureF,DewpointF,PressureIn,WindDirection,WindDirectionDegrees,WindSpeedMPH,WindSpeedGustMPH,Humidity,HourlyPrecipIn,Conditions,Clouds,dailyrainin,SoftwareType,DateUTC
2013-04-28 00:00:00,46.9,34.1,30.30,East,101,0.0,0.0,61,0.00,,,0.00,Wunderground v.1.15,2013-04-28 04:00:00,
2013-04-28 00:05:00,46.9,34.1,30.30,East,101,0.0,0.0,61,0.00,,,0.00,Wunderground v.1.15,2013-04-28 04:05:00,
2013-04-28 00:10:00,46.9,34.1,30.30,East,101,0.0,0.0,61,0.00,,,0.00,Wunderground v.1.15,2013-04-28 04:10:00,
2013-04-28 00:15:00,46.9,34.1,30.30,East,101,0.0,0.0,61,0.00,,,0.00,Wunderground v.1.15,2013-04-28 04:15:00,
2013-04-28 00:20:00,46.7,34.0,30.30,East,101,0.0,0.0,61,0.00,,,0.00,Wunderground v.1.15,2013-04-28 04:20:00,
2013-04-28 00:25:00,46.5,34.2,30.30,East,101,0.0,0.0,62,0.00,,,0.00,Wunderground v.1.15,2013-04-28 04:25:00,
2013-04-28 00:30:00,46.3,34.0,30.30,East,101,0.0,0.0,62,0.00,,,0.00,Wunderground v.1.15,2013-04-28 04:30:00,
2013-04-28 00:35:00,46.2,33.9,30.30,East,101,0.0,0.0,62,0.00,,,0.00,Wunderground v.1.15,2013-04-28 04:35:00,
2013-04-28 00:45:00,46.2,33.9,30.30,East,101,0.0,0.0,62,0.00,,,0.00,Wunderground v.1.15,2013-04-28 04:45:00,
2013-04-28 00:50:00,46.2,33.9,30.30,East,101,0.0,0.0,62,0.00,,,0.00,Wunderground v.1.15,2013-04-28 04:50:00,
2013-04-28 00:55:00,46.3,34.0,30.29,East,101,0.0,0.0,62,0.00,,,0.00,Wunderground v.1.15,2013-04-28 04:55:00,
2013-04-28 01:05:00,46.5,33.8,30.29,East,101,0.0,0.0,61,0.00,,,0.00,Wunderground v.1.15,2013-04-28 05:05:00,
2013-04-28 01:10:00,46.6,33.9,30.29,East,101,0.0,0.0,61,0.00,,,0.00,Wunderground v.1.15,2013-04-28 05:10:00,
2013-04-28 01:15:00,46.5,33.8,30.30,East,101,0.0,0.0,61,0.00,,,0.00,Wunderground v.1.15,2013-04-28 05:15:00,
2013-04-28 01:25:00,46.2,33.9,30.29,East,101,0.0,0.0,62,0.00,,,0.00,Wunderground v.1.15,2013-04-28 05:25:00,
2013-04-28 01:30:00,46.0,33.7,30.29,East,101,0.0,0.0,62,0.00,,,0.00,Wunderground v.1.15,2013-04-28 05:30:00,
2013-04-28 01:35:00,45.8,33.9,30.29,East,101,0.0,0.0,63,0.00,,,0.00,Wunderground v.1.15,2013-04-28 05:35:00,
2013-04-28 01:45:00,45.5,34.0,30.29,East,101,0.0,0.0,64,0.00,,,0.00,Wunderground v.1.15,2013-04-28 05:45:00,
2013-04-28 01:55:00,45.7,33.8,30.29,East,101,0.0,0.0,63,0.00,,,0.00,Wunderground v.1.15,2013-04-28 05:55:00,
2013-04-28 02:05:00,45.8,33.9,30.29,East,101,0.0,0.0,63,0.00,,,0.00,Wunderground v.1.15,2013-04-28 06:05:00,
2013-04-28 02:15:00,45.8,33.9,30.29,East,101,0.0,0.0,63,0.00,,,0.00,Wunderground v.1.15,2013-04-28 06:15:00,
2013-04-28 02:20:00,45.9,34.0,30.29,East,101,0.0,0.0,63,0.00,,,0.00,Wunderground v.1.15,2013-04-28 06:20:00,
2013-04-28 02:25:00,45.8,33.9,30.29,East,101,0.0,0.0,63,0.00,,,0.00,Wunderground v.1.15,2013-04-28 06:25:00,
2013-04-28 02:35:00,45.7,33.8,30.29,East,101,0.0,0.0,63,0.00,,,0.00,Wunderground v.1.15,2013-04-28 06:35:00,
2013-04-28 02:40:00,45.4,33.9,30.29,East,101,0.0,0.0,64,0.00,,,0.00,Wunderground v.1.15,2013-04-28 06:40:00,
2013-04-28 02:45:00,45.0,33.9,30.29,East,101,0.0,0.0,65,0.00,,,0.00,Wunderground v.1.15,2013-04-28 06:45:00,
2013-04-28 02:55:00,44.8,33.7,30.28,East,101,0.0,0.0,65,0.00,,,0.00,Wunderground v.1.15,2013-04-28 06:55:00,
2013-04-28 03:05:00,44.3,33.3,30.28,East,101,0.0,0.0,65,0.00,,,0.00,Wunderground v.1.15,2013-04-28 07:05:00,
2013-04-28 03:10:00,44.1,33.5,30.28,East,101,0.0,0.0,66,0.00,,,0.00,Wunderground v.1.15,2013-04-28 07:10:00,
2013-04-28 03:15:00,44.0,33.4,30.28,East,101,0.0,0.0,66,0.00,,,0.00,Wunderground v.1.15,2013-04-28 07:15:00,
2013-04-28 03:25:00,43.7,33.5,30.28,East,101,0.0,0.0,67,0.00,,,0.00,Wunderground v.1.15,2013-04-28 07:25:00,
2013-04-28 03:30:00,42.6,33.5,30.28,East,101,0.0,0.0,70,0.00,,,0.00,Wunderground v.1.15,2013-04-28 07:30:00,
2013-04-28 03:40:00,40.9,35.2,30.28,East,101,0.0,0.0,80,0.00,,,0.00,Wunderground v.1.15,2013-04-28 07:40:00,
2013-04-28 03:50:00,40.9,33.2,30.28,East,101,0.0,0.0,74,0.00,,,0.00,Wunderground v.1.15,2013-04-28 07:50:00,
2013-04-28 03:55:00,41.4,33.4,30.27,East,101,0.0,0.0,73,0.00,,,0.00,Wunderground v.1.15,2013-04-28 07:55:00,
2013-04-28 04:00:00,41.8,33.4,30.28,East,101,0.0,0.0,72,0.00,,,0.00,Wunderground v.1.15,2013-04-28 08:00:00,
2013-04-28 04:05:00,42.2,33.5,30.28,East,101,0.0,0.0,71,0.00,,,0.00,Wunderground v.1.15,2013-04-28 08:05:00,
2013-04-28 04:15:00,42.5,33.8,30.28,East,101,0.0,0.0,71,0.00,,,0.00,Wunderground v.1.15,2013-04-28 08:15:00,
2013-04-28 04:20:00,41.5,33.1,30.28,East,101,0.0,0.0,72,0.00,,,0.00,Wunderground v.1.15,2013-04-28 08:20:00,
2013-04-28 04:30:00,40.6,33.3,30.28,East,101,0.0,0.0,75,0.00,,,0.00,Wunderground v.1.15,2013-04-28 08:30:00,
2013-04-28 04:35:00,40.2,32.9,30.28,East,101,0.0,0.0,75,0.00,,,0.00,Wunderground v.1.15,2013-04-28 08:35:00,
2013-04-28 04:40:00,39.9,32.9,30.28,East,101,0.0,0.0,76,0.00,,,0.00,Wunderground v.1.15,2013-04-28 08:40:00,
2013-04-28 04:45:00,39.7,33.1,30.28,East,101,0.0,0.0,77,0.00,,,0.00,Wunderground v.1.15,2013-04-28 08:45:00,
2013-04-28 04:55:00,40.2,32.9,30.28,East,101,0.0,0.0,75,0.00,,,0.00,Wunderground v.1.15,2013-04-28 08:55:00,
2013-04-28 05:05:00,40.6,33.0,30.28,East,101,0.0,0.0,74,0.00,,,0.00,Wunderground v.1.15,2013-04-28 09:05:00,
2013-04-28 05:10:00,40.7,32.7,30.27,East,101,0.0,0.0,73,0.00,,,0.00,Wunderground v.1.15,2013-04-28 09:10:00,
2013-04-28 05:15:00,40.9,32.6,30.28,East,101,0.0,0.0,72,0.00,,,0.00,Wunderground v.1.15,2013-04-28 09:15:00,
2013-04-28 05:25:00,41.1,32.4,30.28,East,101,0.0,0.0,71,0.00,,,0.00,Wunderground v.1.15,2013-04-28 09:25:00,
2013-04-28 05:35:00,41.0,32.0,30.28,ENE,57,0.0,0.0,70,0.00,,,0.00,Wunderground v.1.15,2013-04-28 09:35:00,
2013-04-28 05:40:00,41.1,32.1,30.28,ENE,57,0.0,0.0,70,0.00,,,0.00,Wunderground v.1.15,2013-04-28 09:40:00,
2013-04-28 05:45:00,41.1,32.1,30.28,NE,56,0.0,0.0,70,0.00,,,0.00,Wunderground v.1.15,2013-04-28 09:45:00,
2013-04-28 05:55:00,41.0,32.0,30.28,ENE,57,0.0,0.0,70,0.00,,,0.00,Wunderground v.1.15,2013-04-28 09:55:00,
2013-04-28 06:00:00,41.1,31.7,30.27,NE,56,0.0,0.0,69,0.00,,,0.00,Wunderground v.1.15,2013-04-28 10:00:00,
2013-04-28 06:05:00,41.2,31.8,30.27,NE,56,0.0,0.0,69,0.00,,,0.00,Wunderground v.1.15,2013-04-28 10:05:00,
2013-04-28 06:15:00,41.3,31.5,30.28,NNW,341,0.0,0.0,68,0.00,,,0.00,Wunderground v.1.15,2013-04-28 10:15:00,
2013-04-28 06:20:00,41.4,32.0,30.28,NNW,341,0.0,0.0,69,0.00,,,0.00,Wunderground v.1.15,2013-04-28 10:20:00,
2013-04-28 06:25:00,41.7,32.3,30.28,North,360,0.0,0.0,69,0.00,,,0.00,Wunderground v.1.15,2013-04-28 10:25:00,
2013-04-28 06:35:00,42.0,32.6,30.28,North,5,0.0,0.0,69,0.00,,,0.00,Wunderground v.1.15,2013-04-28 10:35:00,
2013-04-28 06:45:00,42.4,32.2,30.28,North,5,0.0,0.0,67,0.00,,,0.00,Wunderground v.1.15,2013-04-28 10:45:00,
2013-04-28 06:50:00,42.6,32.4,30.28,North,360,0.0,0.0,67,0.00,,,0.00,Wunderground v.1.15,2013-04-28 10:50:00,
2013-04-28 07:00:00,43.4,33.2,30.28,North,11,0.0,0.0,67,0.00,,,0.00,Wunderground v.1.15,2013-04-28 11:00:00,
2013-04-28 07:05:00,43.9,34.0,30.29,North,11,0.0,0.0,68,0.00,,,0.00,Wunderground v.1.15,2013-04-28 11:05:00,
2013-04-28 07:10:00,44.4,34.1,30.29,North,11,0.0,0.0,67,0.00,,,0.00,Wunderground v.1.15,2013-04-28 11:10:00,
2013-04-28 07:15:00,44.7,33.3,30.29,North,11,0.0,0.0,64,0.00,,,0.00,Wunderground v.1.15,2013-04-28 11:15:00,
2013-04-28 07:25:00,45.6,35.3,30.29,NNE,23,0.0,0.0,67,0.00,,,0.00,Wunderground v.1.15,2013-04-28 11:25:00,
2013-04-28 07:35:00,46.3,36.7,30.29,NNE,22,0.0,0.0,69,0.00,,,0.00,Wunderground v.1.15,2013-04-28 11:35:00,
2013-04-28 07:45:00,47.1,34.7,30.29,NNE,23,0.0,0.0,62,0.00,,,0.00,Wunderground v.1.15,2013-04-28 11:45:00,
2013-04-28 07:55:00,47.6,36.4,30.30,NNE,23,0.0,0.0,65,0.00,,,0.00,Wunderground v.1.15,2013-04-28 11:55:00,
2013-04-28 08:00:00,48.3,37.1,30.30,NNE,28,0.0,0.0,65,0.00,,,0.00,Wunderground v.1.15,2013-04-28 12:00:00,
2013-04-28 08:05:00,48.1,37.3,30.30,NNE,28,0.0,0.0,66,0.00,,,0.00,Wunderground v.1.15,2013-04-28 12:05:00,
2013-04-28 08:15:00,47.7,36.1,30.30,NNE,28,0.0,0.0,64,0.00,,,0.00,Wunderground v.1.15,2013-04-28 12:15:00,
2013-04-28 08:25:00,48.2,37.0,30.30,NW,323,0.0,0.0,65,0.00,,,0.00,Wunderground v.1.15,2013-04-28 12:25:00,
2013-04-28 08:30:00,48.1,36.9,30.30,SW,233,0.0,0.0,65,0.00,,,0.00,Wunderground v.1.15,2013-04-28 12:30:00,
2013-04-28 08:35:00,48.4,37.2,30.31,SW,233,0.0,0.0,65,0.00,,,0.00,Wunderground v.1.15,2013-04-28 12:35:00,
2013-04-28 08:45:00,50.6,39.7,30.31,SW,233,0.0,0.0,66,0.00,,,0.00,Wunderground v.1.15,2013-04-28 12:45:00,
2013-04-28 08:50:00,51.4,38.8,30.30,SW,233,0.0,0.0,62,0.00,,,0.00,Wunderground v.1.15,2013-04-28 12:50:00,
2013-04-28 08:55:00,52.0,40.2,30.31,SW,232,0.0,0.0,64,0.00,,,0.00,Wunderground v.1.15,2013-04-28 12:55:00,
2013-04-28 09:05:00,52.6,39.5,30.31,SE,144,0.0,0.0,61,0.00,,,0.00,Wunderground v.1.15,2013-04-28 13:05:00,
2013-04-28 09:10:00,52.6,38.2,30.31,ENE,65,0.0,0.0,58,0.00,,,0.00,Wunderground v.1.15,2013-04-28 13:10:00,
2013-04-28 09:15:00,53.0,39.0,30.31,NW,318,0.0,0.0,59,0.00,,,0.00,Wunderground v.1.15,2013-04-28 13:15:00,
2013-04-28 09:25:00,54.0,38.6,30.31,SSE,165,0.0,0.0,56,0.00,,,0.00,Wunderground v.1.15,2013-04-28 13:25:00,
2013-04-28 09:30:00,54.3,39.4,30.31,ESE,123,0.0,0.0,57,0.00,,,0.00,Wunderground v.1.15,2013-04-28 13:30:00,
2013-04-28 09:35:00,54.3,40.3,30.31,ESE,117,0.0,0.0,59,0.00,,,0.00,Wunderground v.1.15,2013-04-28 13:35:00,
2013-04-28 09:45:00,55.6,39.7,30.30,South,179,0.0,1.0,55,0.00,,,0.00,Wunderground v.1.15,2013-04-28 13:45:00,
2013-04-28 09:55:00,56.0,39.6,30.30,SW,235,1.0,2.0,54,0.00,,,0.00,Wunderground v.1.15,2013-04-28 13:55:00,
2013-04-28 10:00:00,55.8,38.4,30.30,SW,236,1.0,1.0,52,0.00,,,0.00,Wunderground v.1.15,2013-04-28 14:00:00,
2013-04-28 10:10:00,56.6,40.6,30.30,SSW,194,0.0,0.0,55,0.00,,,0.00,Wunderground v.1.15,2013-04-28 14:10:00,
2013-04-28 10:15:00,57.0,41.9,30.30,SE,137,1.0,1.0,57,0.00,,,0.00,Wunderground v.1.15,2013-04-28 14:15:00,
2013-04-28 10:25:00,57.5,41.9,30.30,ESE,103,2.0,3.0,56,0.00,,,0.00,Wunderground v.1.15,2013-04-28 14:25:00,
2013-04-28 10:30:00,58.0,41.0,30.30,SSW,196,1.0,1.0,53,0.00,,,0.00,Wunderground v.1.15,2013-04-28 14:30:00,
2013-04-28 10:35:00,58.7,42.1,30.30,SE,138,1.0,4.0,54,0.00,,,0.00,Wunderground v.1.15,2013-04-28 14:35:00,
2013-04-28 10:45:00,58.8,39.1,30.30,SSW,202,1.0,2.0,48,0.00,,,0.00,Wunderground v.1.15,2013-04-28 14:45:00,
2013-04-28 10:50:00,59.3,42.2,30.30,SSW,199,0.0,0.0,53,0.00,,,0.00,Wunderground v.1.15,2013-04-28 14:50:00,
2013-04-28 10:55:00,59.5,39.8,30.29,SSW,201,0.0,0.0,48,0.00,,,0.00,Wunderground v.1.15,2013-04-28 14:55:00,
2013-04-28 11:05:00,59.3,42.2,30.28,SW,217,2.0,6.0,53,0.00,,,0.00,Wunderground v.1.15,2013-04-28 15:05:00,
2013-04-28 11:15:00,60.2,41.0,30.28,South,181,1.0,2.0,49,0.00,,,0.00,Wunderground v.1.15,2013-04-28 15:15:00,
2013-04-28 11:20:00,60.5,38.5,30.28,SSW,192,1.0,1.0,44,0.00,,,0.00,Wunderground v.1.15,2013-04-28 15:20:00,
2013-04-28 11:30:00,61.1,40.1,30.28,SW,227,1.0,1.0,46,0.00,,,0.00,Wunderground v.1.15,2013-04-28 15:30:00,
2013-04-28 11:35:00,61.3,42.0,30.28,ESE,115,1.0,5.0,49,0.00,,,0.00,Wunderground v.1.15,2013-04-28 15:35:00,
2013-04-28 11:40:00,61.1,39.6,30.27,East,91,1.0,1.0,45,0.00,,,0.00,Wunderground v.1.15,2013-04-28 15:40:00,
2013-04-28 11:45:00,61.3,38.6,30.27,SW,219,1.0,1.0,43,0.00,,,0.00,Wunderground v.1.15,2013-04-28 15:45:00,
2013-04-28 11:55:00,62.0,39.8,30.28,SSW,199,2.0,6.0,44,0.00,,,0.00,Wunderground v.1.15,2013-04-28 15:55:00,
2013-04-28 12:05:00,62.2,38.2,30.27,South,184,1.0,5.0,41,0.00,,,0.00,Wunderground v.1.15,2013-04-28 16:05:00,
2013-04-28 12:10:00,62.2,38.8,30.27,SW,226,1.0,1.0,42,0.00,,,0.00,Wunderground v.1.15,2013-04-28 16:10:00,
2013-04-28 12:15:00,62.2,37.6,30.27,SE,130,1.0,1.0,40,0.00,,,0.00,Wunderground v.1.15,2013-04-28 16:15:00,
2013-04-28 12:25:00,62.7,36.0,30.26,WSW,240,3.0,4.0,37,0.00,,,0.00,Wunderground v.1.15,2013-04-28 16:25:00,
2013-04-28 12:35:00,63.2,37.8,30.26,South,189,1.0,2.0,39,0.00,,,0.00,Wunderground v.1.15,2013-04-28 16:35:00,
2013-04-28 12:40:00,63.1,39.6,30.25,East,85,1.0,1.0,42,0.00,,,0.00,Wunderground v.1.15,2013-04-28 16:40:00,
2013-04-28 12:45:00,63.3,36.6,30.25,SW,215,1.0,3.0,37,0.00,,,0.00,Wunderground v.1.15,2013-04-28 16:45:00,
2013-04-28 12:55:00,63.4,35.2,30.25,SSW,202,2.0,2.0,35,0.00,,,0.00,Wunderground v.1.15,2013-04-28 16:55:00,
2013-04-28 13:00:00,63.8,37.0,30.25,South,184,1.0,4.0,37,0.00,,,0.00,Wunderground v.1.15,2013-04-28 17:00:00,
2013-04-28 13:05:00,63.9,37.1,30.25,SSE,153,1.0,6.0,37,0.00,,,0.00,Wunderground v.1.15,2013-04-28 17:05:00,
2013-04-28 13:15:00,63.6,38.8,30.24,SSE,149,2.0,2.0,40,0.00,,,0.00,Wunderground v.1.15,2013-04-28 17:15:00,
2013-04-28 13:20:00,63.6,41.3,30.24,SSE,148,1.0,4.0,44,0.00,,,0.00,Wunderground v.1.15,2013-04-28 17:20:00,
2013-04-28 13:25:00,63.8,37.0,30.24,SSE,155,2.0,4.0,37,0.00,,,0.00,Wunderground v.1.15,2013-04-28 17:25:00,
2013-04-28 13:35:00,64.4,37.5,30.24,SSW,199,2.0,4.0,37,0.00,,,0.00,Wunderground v.1.15,2013-04-28 17:35:00,
2013-04-28 13:45:00,64.4,37.5,30.24,SSW,195,3.0,5.0,37,0.00,,,0.00,Wunderground v.1.15,2013-04-28 17:45:00,
2013-04-28 13:50:00,64.4,37.5,30.24,ESE,123,2.0,4.0,37,0.00,,,0.00,Wunderground v.1.15,2013-04-28 17:50:00,
2013-04-28 14:00:00,64.8,37.9,30.23,SE,146,2.0,5.0,37,0.00,,,0.00,Wunderground v.1.15,2013-04-28 18:00:00,
2013-04-28 14:05:00,64.6,38.4,30.23,SW,229,2.0,5.0,38,0.00,,,0.00,Wunderground v.1.15,2013-04-28 18:05:00,
2013-04-28 14:10:00,65.1,39.5,30.23,SSE,155,1.0,2.0,39,0.00,,,0.00,Wunderground v.1.15,2013-04-28 18:10:00,
2013-04-28 14:15:00,65.4,38.4,30.23,West,262,1.0,7.0,37,0.00,,,0.00,Wunderground v.1.15,2013-04-28 18:15:00,
2013-04-28 14:25:00,65.9,36.7,30.22,SW,215,2.0,2.0,34,0.00,,,0.00,Wunderground v.1.15,2013-04-28 18:25:00,
2013-04-28 14:35:00,65.3,39.7,30.22,ENE,71,2.0,2.0,39,0.00,,,0.00,Wunderground v.1.15,2013-04-28 18:35:00,
2013-04-28 14:40:00,65.0,37.4,30.22,ENE,64,2.0,2.0,36,0.00,,,0.00,Wunderground v.1.15,2013-04-28 18:40:00,
2013-04-28 14:45:00,65.7,40.1,30.22,SE,132,2.0,10.0,39,0.00,,,0.00,Wunderground v.1.15,2013-04-28 18:45:00,
2013-04-28 14:55:00,65.4,39.8,30.21,SE,140,3.0,3.0,39,0.00,,,0.00,Wunderground v.1.15,2013-04-28 18:55:00,
2013-04-28 15:00:00,65.5,36.4,30.21,South,171,2.0,2.0,34,0.00,,,0.00,Wunderground v.1.15,2013-04-28 19:00:00,
2013-04-28 15:05:00,65.9,37.5,30.21,SE,140,1.0,2.0,35,0.00,,,0.00,Wunderground v.1.15,2013-04-28 19:05:00,
2013-04-28 15:15:00,66.2,39.8,30.20,East,95,1.0,7.0,38,0.00,,,0.00,Wunderground v.1.15,2013-04-28 19:15:00,
2013-04-28 15:25:00,66.1,37.6,30.20,SSE,159,3.0,3.0,35,0.00,,,0.00,Wunderground v.1.15,2013-04-28 19:25:00,
2013-04-28 15:30:00,66.0,36.8,30.20,SSE,148,2.0,2.0,34,0.00,,,0.00,Wunderground v.1.15,2013-04-28 19:30:00,
2013-04-28 15:35:00,65.7,38.0,30.19,SE,138,2.0,4.0,36,0.00,,,0.00,Wunderground v.1.15,2013-04-28 19:35:00,
2013-04-28 15:45:00,66.0,35.3,30.19,SE,146,2.0,2.0,32,0.00,,,0.00,Wunderground v.1.15,2013-04-28 19:45:00,
2013-04-28 15:55:00,66.8,38.3,30.19,West,260,1.0,3.0,35,0.00,,,0.00,Wunderground v.1.15,2013-04-28 19:55:00,
2013-04-28 16:00:00,66.6,36.6,30.19,ENE,69,2.0,2.0,33,0.00,,,0.00,Wunderground v.1.15,2013-04-28 20:00:00,
2013-04-28 16:05:00,66.8,37.5,30.18,ENE,68,1.0,2.0,34,0.00,,,0.00,Wunderground v.1.15,2013-04-28 20:05:00,
2013-04-28 16:15:00,66.5,38.0,30.18,East,83,2.0,7.0,35,0.00,,,0.00,Wunderground v.1.15,2013-04-28 20:15:00,
2013-04-28 16:20:00,66.3,37.1,30.18,SE,129,4.0,5.0,34,0.00,,,0.00,Wunderground v.1.15,2013-04-28 20:20:00,
2013-04-28 16:25:00,66.3,39.9,30.18,WSW,249,3.0,5.0,38,0.00,,,0.00,Wunderground v.1.15,2013-04-28 20:25:00,
2013-04-28 16:35:00,67.1,38.5,30.18,SW,236,1.0,1.0,35,0.00,,,0.00,Wunderground v.1.15,2013-04-28 20:35:00,
2013-04-28 16:45:00,67.1,38.5,30.18,WSW,246,1.0,3.0,35,0.00,,,0.00,Wunderground v.1.15,2013-04-28 20:45:00,
2013-04-28 16:50:00,66.8,36.0,30.18,West,272,2.0,2.0,32,0.00,,,0.00,Wunderground v.1.15,2013-04-28 20:50:00,
2013-04-28 16:55:00,66.7,37.4,30.18,SSE,159,1.0,2.0,34,0.00,,,0.00,Wunderground v.1.15,2013-04-28 20:55:00,
2013-04-28 17:05:00,66.3,39.2,30.18,SE,124,1.0,3.0,37,0.00,,,0.00,Wunderground v.1.15,2013-04-28 21:05:00,
2013-04-28 17:10:00,66.4,39.3,30.17,ESE,113,1.0,2.0,37,0.00,,,0.00,Wunderground v.1.15,2013-04-28 21:10:00,
2013-04-28 17:15:00,66.5,37.2,30.17,SSE,168,1.0,2.0,34,0.00,,,0.00,Wunderground v.1.15,2013-04-28 21:15:00,
2013-04-28 17:25:00,65.6,36.5,30.17,East,94,2.0,2.0,34,0.00,,,0.00,Wunderground v.1.15,2013-04-28 21:25:00,
2013-04-28 17:30:00,65.0,38.1,30.17,ENE,76,4.0,4.0,37,0.00,,,0.00,Wunderground v.1.15,2013-04-28 21:30:00,
2013-04-28 17:40:00,63.7,38.3,30.17,ESE,106,7.0,13.0,39,0.00,,,0.00,Wunderground v.1.15,2013-04-28 21:40:00,
2013-04-28 17:50:00,63.1,38.4,30.17,East,90,8.0,10.0,40,0.00,,,0.00,Wunderground v.1.15,2013-04-28 21:50:00,
2013-04-28 17:55:00,63.0,38.9,30.17,ESE,117,7.0,10.0,41,0.00,,,0.00,Wunderground v.1.15,2013-04-28 21:55:00,
2013-04-28 18:00:00,62.7,38.6,30.17,SSE,158,6.0,6.0,41,0.00,,,0.00,Wunderground v.1.15,2013-04-28 22:00:00,
2013-04-28 18:05:00,62.3,37.7,30.17,SE,136,5.0,6.0,40,0.00,,,0.00,Wunderground v.1.15,2013-04-28 22:05:00,
2013-04-28 18:15:00,61.7,37.7,30.18,SE,136,5.0,8.0,41,0.00,,,0.00,Wunderground v.1.15,2013-04-28 22:15:00,
2013-04-28 18:25:00,61.1,37.2,30.18,ESE,121,4.0,6.0,41,0.00,,,0.00,Wunderground v.1.15,2013-04-28 22:25:00,
2013-04-28 18:35:00,60.5,36.0,30.18,ESE,106,6.0,6.0,40,0.00,,,0.00,Wunderground v.1.15,2013-04-28 22:35:00,
2013-04-28 18:45:00,59.7,36.6,30.18,ESE,115,6.0,6.0,42,0.00,,,0.00,Wunderground v.1.15,2013-04-28 22:45:00,
2013-04-28 18:50:00,59.4,36.9,30.18,ESE,113,6.0,6.0,43,0.00,,,0.00,Wunderground v.1.15,2013-04-28 22:50:00,
2013-04-28 18:55:00,59.0,36.5,30.18,East,98,5.0,9.0,43,0.00,,,0.00,Wunderground v.1.15,2013-04-28 22:55:00,
2013-04-28 19:05:00,58.9,36.4,30.18,ESE,106,6.0,6.0,43,0.00,,,0.00,Wunderground v.1.15,2013-04-28 23:05:00,
2013-04-28 19:10:00,58.3,35.9,30.18,SE,132,6.0,6.0,43,0.00,,,0.00,Wunderground v.1.15,2013-04-28 23:10:00,
2013-04-28 19:15:00,57.8,36.0,30.18,SE,130,4.0,6.0,44,0.00,,,0.00,Wunderground v.1.15,2013-04-28 23:15:00,
2013-04-28 19:25:00,57.3,35.6,30.19,ESE,118,6.0,6.0,44,0.00,,,0.00,Wunderground v.1.15,2013-04-28 23:25:00,
2013-04-28 19:35:00,56.6,36.0,30.19,ESE,114,4.0,5.0,46,0.00,,,0.00,Wunderground v.1.15,2013-04-28 23:35:00,
2013-04-28 19:40:00,55.9,35.9,30.19,ESE,113,2.0,2.0,47,0.00,,,0.00,Wunderground v.1.15,2013-04-28 23:40:00,
2013-04-28 19:45:00,55.5,35.6,30.19,SE,124,2.0,3.0,47,0.00,,,0.00,Wunderground v.1.15,2013-04-28 23:45:00,
2013-04-28 19:55:00,55.1,35.2,30.19,ESE,115,4.0,4.0,47,0.00,,,0.00,Wunderground v.1.15,2013-04-28 23:55:00,
2013-04-28 20:00:00,54.8,35.5,30.19,ESE,109,4.0,4.0,48,0.00,,,0.00,Wunderground v.1.15,2013-04-29 00:00:00,
2013-04-28 20:05:00,54.7,35.4,30.19,East,101,3.0,4.0,48,0.00,,,0.00,Wunderground v.1.15,2013-04-29 00:05:00,
2013-04-28 20:15:00,54.0,35.3,30.19,SE,130,2.0,6.0,49,0.00,,,0.00,Wunderground v.1.15,2013-04-29 00:15:00,
2013-04-28 20:20:00,53.9,35.7,30.19,ESE,110,2.0,2.0,50,0.00,,,0.00,Wunderground v.1.15,2013-04-29 00:20:00,
2013-04-28 20:30:00,53.2,35.5,30.19,East,94,1.0,6.0,51,0.00,,,0.00,Wunderground v.1.15,2013-04-29 00:30:00,
2013-04-28 20:35:00,53.1,35.4,30.20,East,97,2.0,6.0,51,0.00,,,0.00,Wunderground v.1.15,2013-04-29 00:35:00,
2013-04-28 20:45:00,52.4,35.8,30.20,East,98,2.0,4.0,53,0.00,,,0.00,Wunderground v.1.15,2013-04-29 00:45:00,
2013-04-28 20:50:00,52.2,35.6,30.20,East,92,2.0,3.0,53,0.00,,,0.00,Wunderground v.1.15,2013-04-29 00:50:00,
2013-04-28 21:00:00,52.1,35.9,30.20,ESE,113,3.0,7.0,54,0.00,,,0.00,Wunderground v.1.15,2013-04-29 01:00:00,
2013-04-28 21:05:00,52.1,35.9,30.20,ESE,107,3.0,7.0,54,0.00,,,0.00,Wunderground v.1.15,2013-04-29 01:05:00,
2013-04-28 21:15:00,51.5,35.9,30.21,ESE,109,2.0,3.0,55,0.00,,,0.00,Wunderground v.1.15,2013-04-29 01:15:00,
2013-04-28 21:20:00,51.1,35.9,30.21,East,90,2.0,2.0,56,0.00,,,0.00,Wunderground v.1.15,2013-04-29 01:20:00,
2013-04-28 21:25:00,51.0,35.8,30.21,ESE,110,1.0,2.0,56,0.00,,,0.00,Wunderground v.1.15,2013-04-29 01:25:00,
2013-04-28 21:35:00,50.6,35.9,30.22,ESE,106,0.0,1.0,57,0.00,,,0.00,Wunderground v.1.15,2013-04-29 01:35:00,
2013-04-28 21:40:00,50.5,35.8,30.21,ESE,106,0.0,0.0,57,0.00,,,0.00,Wunderground v.1.15,2013-04-29 01:40:00,
2013-04-28 21:45:00,50.3,35.6,30.21,ESE,103,0.0,0.0,57,0.00,,,0.00,Wunderground v.1.15,2013-04-29 01:45:00,
2013-04-28 21:55:00,50.1,35.9,30.21,East,97,0.0,0.0,58,0.00,,,0.00,Wunderground v.1.15,2013-04-29 01:55:00,
2013-04-28 22:05:00,49.7,35.9,30.22,East,96,0.0,0.0,59,0.00,,,0.00,Wunderground v.1.15,2013-04-29 02:05:00,
2013-04-28 22:10:00,49.5,35.3,30.22,East,96,0.0,0.0,58,0.00,,,0.00,Wunderground v.1.15,2013-04-29 02:10:00,
2013-04-28 22:20:00,49.3,35.6,30.22,East,96,0.0,0.0,59,0.00,,,0.00,Wunderground v.1.15,2013-04-29 02:20:00,
2013-04-28 22:25:00,49.2,35.5,30.22,ESE,103,0.0,0.0,59,0.00,,,0.00,Wunderground v.1.15,2013-04-29 02:25:00,
2013-04-28 22:30:00,49.2,35.5,30.22,ESE,103,0.0,0.0,59,0.00,,,0.00,Wunderground v.1.15,2013-04-29 02:30:00,
2013-04-28 22:35:00,49.1,35.4,30.21,ESE,103,0.0,0.0,59,0.00,,,0.00,Wunderground v.1.15,2013-04-29 02:35:00,
2013-04-28 22:45:00,48.9,35.6,30.22,ESE,102,0.0,0.0,60,0.00,,,0.00,Wunderground v.1.15,2013-04-29 02:45:00,
2013-04-28 22:55:00,48.6,35.7,30.22,ESE,103,0.0,0.0,61,0.00,,,0.00,Wunderground v.1.15,2013-04-29 02:55:00,
2013-04-28 23:05:00,48.5,35.7,30.22,ESE,103,0.0,0.0,61,0.00,,,0.00,Wunderground v.1.15,2013-04-29 03:05:00,
2013-04-28 23:15:00,48.6,35.7,30.22,ESE,103,0.0,0.0,61,0.00,,,0.00,Wunderground v.1.15,2013-04-29 03:15:00,
2013-04-28 23:20:00,48.5,35.7,30.22,ESE,103,0.0,0.0,61,0.00,,,0.00,Wunderground v.1.15,2013-04-29 03:20:00,
2013-04-28 23:25:00,48.5,35.7,30.22,ESE,102,0.0,0.0,61,0.00,,,0.00,Wunderground v.1.15,2013-04-29 03:25:00,
2013-04-28 23:35:00,48.5,35.7,30.22,East,90,0.0,0.0,61,0.00,,,0.00,Wunderground v.1.15,2013-04-29 03:35:00,
2013-04-28 23:40:00,48.5,35.7,30.22,East,90,0.0,0.0,61,0.00,,,0.00,Wunderground v.1.15,2013-04-29 03:40:00,
2013-04-28 23:45:00,48.3,35.5,30.22,East,90,0.0,0.0,61,0.00,,,0.00,Wunderground v.1.15,2013-04-29 03:45:00,
2013-04-28 23:55:00,48.0,35.6,30.22,East,90,0.0,0.0,62,0.00,,,0.00,Wunderground v.1.15,2013-04-29 03:55:00,